createdAt,value
2023-01-11T00:44:05.161Z,98985.67
2023-01-11T01:03:14.485Z,99008.16
2023-01-11T01:27:14.564Z,99013.94
2023-01-11T01:30:52.874Z,98986.70
2023-01-11T01:34:44.765Z,98975.50
2023-01-11T01:41:51.809Z,98955.45
2023-01-11T01:45:51.750Z,98948.66
2023-01-11T01:56:56.797Z,98918.80
2023-01-11T02:04:37.838Z,98881.39
2023-01-11T02:08:27.528Z,98871.29
2023-01-11T02:12:03.824Z,98876.77
2023-01-11T02:15:34.763Z,98884.61
2023-01-11T02:19:02.832Z,98890.51
2023-01-11T02:23:12.804Z,98896.23
2023-01-11T02:38:06.767Z,98915.30
2023-01-11T02:56:27.835Z,98923.09
2023-01-11T03:12:32.886Z,98935.12
2023-01-11T03:37:49.752Z,98927.80
2023-01-11T03:59:33.731Z,98920.38
2023-01-11T04:02:43.539Z,98918.59
2023-01-11T04:05:12.061Z,98919.31
2023-01-11T04:07:40.512Z,98920.70
2023-01-11T04:10:09.616Z,98923.20
2023-01-11T04:12:37.778Z,98925.29
2023-01-11T04:15:06.953Z,98923.33
2023-01-11T04:17:35.439Z,98922.34
2023-01-11T04:20:03.675Z,98923.73
2023-01-11T04:22:32.116Z,98925.73
2023-01-11T04:25:00.369Z,98927.52
2023-01-11T04:27:28.573Z,98924.84
2023-01-11T04:29:56.938Z,98923.05
2023-01-11T04:32:25.536Z,98921.77
2023-01-11T04:34:53.877Z,98919.94
2023-01-11T04:37:22.094Z,98915.23
2023-01-11T04:39:50.457Z,98912.14
2023-01-11T04:42:18.808Z,98907.02
2023-01-11T04:44:49.241Z,98911.96
2023-01-11T04:47:19.367Z,98916.02
2023-01-11T04:49:47.986Z,98917.33
2023-01-11T04:52:18.856Z,98925.30
2023-01-11T04:54:48.840Z,98923.83
2023-01-11T04:57:17.755Z,98927.80
2023-01-11T04:59:48.984Z,98929.27
2023-01-11T05:02:17.352Z,98930.54
2023-01-11T05:04:45.775Z,98930.45
2023-01-11T05:07:14.127Z,98932.18
2023-01-11T05:09:42.591Z,98934.32
2023-01-11T05:12:11.001Z,98931.95
2023-01-11T05:14:39.422Z,98927.85
2023-01-11T05:17:07.887Z,98922.91
2023-01-11T05:19:36.145Z,98924.50
2023-01-11T05:22:04.501Z,98921.85
2023-01-11T05:24:32.716Z,98921.20
2023-01-11T05:27:00.957Z,98919.23
2023-01-11T05:29:29.553Z,98923.45
2023-01-11T05:31:57.725Z,98924.43
2023-01-11T05:34:25.925Z,98918.63
2023-01-11T05:36:54.310Z,98914.90
2023-01-11T05:39:23.923Z,98908.36
2023-01-11T05:41:52.499Z,98905.55
2023-01-11T05:44:39.294Z,98900.73
2023-01-11T05:47:07.712Z,98903.34
2023-01-11T05:49:40.949Z,98904.16
2023-01-11T05:52:10.134Z,98897.34
2023-01-11T05:54:38.590Z,98894.62
2023-01-11T05:57:11.645Z,98889.77
2023-01-11T05:59:42.420Z,98887.02
2023-01-11T06:05:49.694Z,98876.00
2023-01-11T06:08:20.626Z,98877.31
2023-01-11T06:29:03.470Z,98875.79
2023-01-11T06:41:21.540Z,98882.73
2023-01-11T06:59:12.471Z,98860.95
2023-01-11T07:01:59.792Z,98865.61
2023-01-11T07:04:29.839Z,98865.85
2023-01-11T07:07:09.557Z,98867.98
2023-01-11T07:09:51.518Z,98871.94
2023-01-11T07:12:40.231Z,98866.95
2023-01-11T07:15:12.286Z,98868.73
2023-01-11T07:17:41.527Z,98865.03
2023-01-11T07:20:30.658Z,98864.74
2023-01-11T07:27:05.610Z,98866.30
2023-01-11T07:29:38.512Z,98869.85
2023-01-11T07:32:08.351Z,98865.40
2023-01-11T07:34:36.899Z,98871.16
2023-01-11T07:37:28.537Z,98874.09
2023-01-11T07:39:57.697Z,98876.84
2023-01-11T07:42:44.982Z,98879.66
2023-01-11T07:45:13.560Z,98874.31
2023-01-11T07:47:41.993Z,98870.34
2023-01-11T07:50:10.630Z,98872.42
2023-01-11T07:52:39.227Z,98866.42
2023-01-11T07:55:08.407Z,98872.79
2023-01-11T07:57:36.865Z,98869.94
2023-01-11T08:00:05.921Z,98872.31
2023-01-11T08:02:40.052Z,98875.45
2023-01-11T08:05:09.137Z,98872.84
2023-01-11T08:07:37.573Z,98868.10
2023-01-11T08:10:09.406Z,98868.55
2023-01-11T08:13:08.221Z,98871.36
2023-01-11T08:15:36.848Z,98866.70
2023-01-11T08:18:06.508Z,98866.91
2023-01-11T08:20:34.936Z,98871.98
2023-01-11T08:23:10.833Z,98872.76
2023-01-11T08:25:39.661Z,98873.05
2023-01-11T08:28:08.284Z,98865.16
2023-01-11T08:30:37.847Z,98865.41
2023-01-11T08:33:06.070Z,98865.89
2023-01-11T08:35:39.088Z,98869.36
2023-01-11T08:38:08.286Z,98869.36
2023-01-11T08:40:36.923Z,98868.88
2023-01-11T08:43:05.557Z,98865.85
2023-01-11T08:45:34.250Z,98855.45
2023-01-11T08:48:02.668Z,98857.33
2023-01-11T08:50:31.176Z,98858.95
2023-01-11T08:52:59.642Z,98863.00
2023-01-11T08:55:28.106Z,98864.14
2023-01-11T08:57:57.574Z,98866.55
2023-01-11T09:00:25.853Z,98865.08
2023-01-11T09:02:54.336Z,98873.83
2023-01-11T09:05:24.889Z,98872.64
2023-01-11T09:07:56.609Z,98862.59
2023-01-11T09:10:27.664Z,98866.19
2023-01-11T09:12:56.971Z,98870.73
2023-01-11T09:15:25.442Z,98871.16
2023-01-11T09:17:54.250Z,98875.66
2023-01-11T09:20:24.343Z,98874.77
2023-01-11T09:22:56.185Z,98875.79
2023-01-11T09:25:24.693Z,98875.55
2023-01-11T09:27:53.026Z,98876.14
2023-01-11T09:30:23.193Z,98877.27
2023-01-11T09:32:52.619Z,98878.98
2023-01-11T09:35:22.136Z,98878.86
2023-01-11T09:37:54.027Z,98880.73
2023-01-11T09:40:26.950Z,98880.29
2023-01-11T09:43:01.006Z,98881.27
2023-01-11T09:45:34.575Z,98880.20
2023-01-11T09:48:26.733Z,98873.52
2023-01-11T09:50:55.676Z,98873.56
2023-01-11T09:53:32.627Z,98878.23
2023-01-11T09:56:03.907Z,98883.95
2023-01-11T09:58:51.028Z,98890.19
2023-01-11T10:01:31.168Z,98890.96
2023-01-11T10:04:08.627Z,98894.35
2023-01-11T10:06:56.016Z,98892.84
2023-01-11T10:18:22.340Z,98916.73
2023-01-11T10:19:19.523Z,98921.27
2023-01-11T10:21:50.776Z,98925.17
2023-01-11T10:24:35.310Z,98937.52
2023-01-11T10:27:14.921Z,98951.19
2023-01-11T10:30:04.687Z,98964.27
2023-01-11T10:33:02.186Z,98967.86
2023-01-11T10:35:45.047Z,98968.80
2023-01-11T10:38:50.508Z,98973.30
2023-01-11T10:41:34.220Z,98978.52
2023-01-11T10:44:12.563Z,98981.48
2023-01-11T10:46:46.360Z,98985.64
2023-01-11T10:49:48.124Z,98985.30
2023-01-11T10:52:28.403Z,98985.02
2023-01-11T10:54:59.004Z,98982.17
2023-01-11T10:58:00.271Z,98986.53
2023-01-11T11:01:05.004Z,98990.41
2023-01-11T11:03:36.187Z,98997.98
2023-01-11T11:06:28.130Z,99002.70
2023-01-11T11:09:13.393Z,99011.04
2023-01-11T11:11:53.051Z,99018.99
2023-01-11T11:14:38.896Z,99021.04
2023-01-11T11:17:28.226Z,99020.83
2023-01-11T11:19:57.735Z,99021.15
2023-01-11T11:22:25.852Z,99024.87
2023-01-11T11:25:01.512Z,99025.98
2023-01-11T11:27:41.523Z,99023.75
2023-01-11T11:30:13.977Z,99020.80
2023-01-11T11:32:54.854Z,99021.16
2023-01-11T11:35:42.525Z,99016.48
2023-01-11T11:38:25.742Z,99009.85
2023-01-11T11:41:03.794Z,99009.61
2023-01-11T11:43:34.646Z,99008.02
2023-01-11T11:46:08.292Z,99005.59
2023-01-11T11:48:36.574Z,99004.66
2023-01-11T11:51:10.063Z,98993.78
2023-01-11T11:53:53.364Z,98993.84
2023-01-11T11:56:35.413Z,99006.91
2023-01-11T11:59:35.851Z,99022.84
2023-01-11T12:02:16.846Z,99039.72
2023-01-11T12:04:48.531Z,99048.58
2023-01-11T12:07:49.788Z,99072.04
2023-01-11T12:10:25.115Z,99092.73
2023-01-11T12:13:00.194Z,99103.55
2023-01-11T12:15:31.993Z,99111.17
2023-01-11T12:18:40.628Z,99117.73
2023-01-11T12:21:17.291Z,99119.38
2023-01-11T12:23:45.695Z,99118.89
2023-01-11T12:26:24.806Z,99116.23
2023-01-11T12:28:59.331Z,99118.15
2023-01-11T12:31:48.777Z,99122.08
2023-01-11T12:34:32.133Z,99119.95
2023-01-11T12:37:26.458Z,99115.48
2023-01-11T12:40:39.679Z,99118.15
2023-01-11T12:43:45.581Z,99115.33
2023-01-11T12:46:29.149Z,99118.20
2023-01-11T12:49:00.051Z,99121.04
2023-01-11T12:51:37.476Z,99115.99
2023-01-11T12:54:17.432Z,99109.77
2023-01-11T12:56:51.491Z,99108.58
2023-01-11T12:59:39.076Z,99103.22
2023-01-11T13:02:25.594Z,99101.33
2023-01-11T13:05:18.053Z,99100.77
2023-01-11T13:07:52.695Z,99104.91
2023-01-11T13:40:25.752Z,99099.77
2023-01-11T13:43:32.111Z,99099.19
2023-01-11T13:46:15.200Z,99098.74
2023-01-11T13:49:04.543Z,99096.50
2023-01-11T13:51:47.573Z,99093.83
2023-01-11T13:54:23.673Z,99086.88
2023-01-11T13:56:58.713Z,99083.36
2023-01-11T13:59:25.828Z,99082.17
2023-01-11T14:02:02.140Z,99075.17
2023-01-11T14:04:51.651Z,99066.58
2023-01-11T14:07:35.868Z,99051.48
2023-01-11T14:10:36.667Z,99038.62
2023-01-11T14:13:38.500Z,99019.92
2023-01-11T14:16:33.010Z,99006.66
2023-01-11T14:19:11.966Z,98984.55
2023-01-11T14:21:49.298Z,98968.94
2023-01-11T14:24:17.835Z,98955.11
2023-01-11T14:27:32.716Z,98939.73
2023-01-11T15:37:58.239Z,98687.40
2023-01-11T15:40:30.047Z,98688.03
2023-01-11T15:43:16.968Z,98682.91
2023-01-11T15:46:36.800Z,98677.67
2023-01-11T15:49:45.423Z,98673.37
2023-01-11T15:52:36.878Z,98670.10
2023-01-11T15:55:25.552Z,98664.95
2023-01-11T15:58:04.249Z,98657.52
2023-01-11T16:12:06.043Z,98644.90
2023-01-11T16:14:42.470Z,98650.02
2023-01-11T16:20:33.315Z,98643.14
2023-01-11T16:38:03.285Z,98634.27
2023-01-11T19:10:10.177Z,98591.91
2023-01-11T19:12:41.824Z,98598.40
2023-01-11T19:35:53.192Z,98593.94
2023-01-11T19:38:29.542Z,98597.29
2023-01-11T19:41:08.083Z,98597.18
2023-01-11T19:43:35.508Z,98593.95
2023-01-11T19:46:03.322Z,98597.05
2023-01-11T19:48:34.226Z,98598.85
2023-01-11T19:51:08.923Z,98604.09
2023-01-11T19:53:42.776Z,98605.48
2023-01-11T19:56:15.054Z,98606.60
2023-01-11T19:58:46.973Z,98611.86
2023-01-11T20:24:10.790Z,98604.52
2023-01-11T20:26:41.705Z,98605.25
2023-01-11T20:29:29.257Z,98610.70
2023-01-11T20:31:58.217Z,98609.91
2023-01-11T20:34:41.364Z,98609.37
2023-01-11T20:50:55.442Z,98615.25
2023-01-11T20:56:35.932Z,98615.51
2023-01-11T20:59:27.681Z,98616.80
2023-01-11T21:02:23.258Z,98613.95
2023-01-11T21:11:54.289Z,98608.23
2023-01-11T21:14:36.185Z,98606.27
2023-01-11T21:31:50.525Z,98604.90
2023-01-11T21:34:25.435Z,98606.86
